createdAt,value
2023-05-09T00:01:17.461Z,89
2023-05-09T00:04:05.661Z,89
2023-05-09T00:06:53.614Z,89.2
2023-05-09T00:09:41.460Z,89.4
2023-05-09T00:12:29.256Z,89.6
2023-05-09T00:15:17.053Z,89.5
2023-05-09T00:18:05.095Z,89.5
2023-05-09T00:20:53.432Z,90
2023-05-09T00:23:41.315Z,90
2023-05-09T00:26:29.152Z,89.7
2023-05-09T00:29:16.989Z,89.9
2023-05-09T00:32:04.951Z,90.1
2023-05-09T00:34:52.853Z,90.2
2023-05-09T00:37:41.078Z,90
2023-05-09T00:40:28.947Z,89.5
2023-05-09T00:43:16.552Z,89.3
2023-05-09T00:46:04.799Z,89.3
2023-05-09T00:48:52.547Z,89.3
2023-05-09T00:51:40.527Z,89.8
2023-05-09T00:54:28.646Z,90.1
2023-05-09T00:57:16.658Z,90.1
2023-05-09T01:00:04.471Z,90.1
2023-05-09T01:02:52.642Z,90.2
2023-05-09T01:05:40.671Z,90.4
2023-05-09T01:08:28.507Z,90.7
2023-05-09T01:11:16.730Z,90.8
2023-05-09T01:14:04.643Z,90.6
2023-05-09T01:16:52.531Z,90.6
2023-05-09T01:19:40.363Z,90.9
2023-05-09T01:22:28.097Z,90.7
2023-05-09T01:25:16.438Z,90.5
2023-05-09T01:28:04.862Z,90.4
2023-05-09T01:30:52.883Z,90.2
2023-05-09T01:33:40.626Z,90.2
2023-05-09T01:36:28.545Z,90.6
2023-05-09T01:39:16.223Z,90.7
2023-05-09T01:42:03.964Z,90.5
2023-05-09T01:44:52.026Z,90.2
2023-05-09T01:47:39.898Z,90.4
2023-05-09T01:50:27.744Z,90.7
2023-05-09T01:53:15.529Z,90.7
2023-05-09T01:56:03.339Z,90.8
2023-05-09T01:58:51.051Z,90.7
2023-05-09T02:01:39.243Z,90.8
2023-05-09T02:04:27.063Z,90.8
2023-05-09T02:07:14.824Z,90.9
2023-05-09T02:10:02.667Z,90.9
2023-05-09T02:12:50.505Z,90.9
2023-05-09T02:15:38.608Z,90.7
2023-05-09T02:18:26.674Z,90.6
2023-05-09T02:21:14.744Z,90.6
2023-05-09T02:24:02.608Z,90.6
2023-05-09T02:26:50.393Z,90.6
2023-05-09T02:29:38.115Z,90.5
2023-05-09T02:32:26.265Z,90.6
2023-05-09T02:35:14.948Z,90.8
2023-05-09T02:38:02.824Z,90.9
2023-05-09T02:40:52.780Z,91
2023-05-09T02:43:40.823Z,91
2023-05-09T02:46:28.820Z,91.2
2023-05-09T02:49:32.623Z,91.3
2023-05-09T02:52:20.944Z,91.5
2023-05-09T02:55:08.757Z,91.4
2023-05-09T02:58:13.147Z,91.3
2023-05-09T03:01:01.263Z,91.2
2023-05-09T03:03:49.172Z,91.3
2023-05-09T03:06:36.951Z,91.5
2023-05-09T03:09:25.087Z,91.4
2023-05-09T03:12:12.812Z,91.3
2023-05-09T03:15:00.544Z,91.4
2023-05-09T03:17:48.444Z,91.5
2023-05-09T03:20:36.209Z,91.9
2023-05-09T03:23:23.852Z,92.2
2023-05-09T03:26:11.996Z,92.4
2023-05-09T03:28:59.838Z,92.3
2023-05-09T03:31:47.692Z,92.5
2023-05-09T03:34:35.636Z,92.7
2023-05-09T03:37:26.856Z,92.8
2023-05-09T03:40:14.840Z,92.5
2023-05-09T03:43:03.006Z,92.7
2023-05-09T03:45:50.963Z,92.8
2023-05-09T03:48:38.697Z,92.8
2023-05-09T03:51:26.481Z,92.6
2023-05-09T03:54:14.116Z,92.4
2023-05-09T03:57:01.776Z,92.5
2023-05-09T03:59:49.859Z,92.5
2023-05-09T04:02:38.142Z,92.5
2023-05-09T04:05:25.871Z,92.3
2023-05-09T04:08:13.743Z,92.1
2023-05-09T04:11:01.448Z,92.1
2023-05-09T04:13:49.378Z,92.1
2023-05-09T04:16:37.904Z,92.1
2023-05-09T04:19:25.858Z,92.1
2023-05-09T04:22:13.594Z,92.2
2023-05-09T04:25:01.418Z,92.2
2023-05-09T04:27:49.190Z,92.3
2023-05-09T04:30:37.136Z,92.4
2023-05-09T04:33:25.416Z,92.4
2023-05-09T04:36:13.370Z,92.6
2023-05-09T04:39:01.106Z,92.8
2023-05-09T04:41:48.886Z,92.7
2023-05-09T04:44:36.624Z,92.7
2023-05-09T04:47:24.415Z,92.7
2023-05-09T04:50:12.670Z,92.7
2023-05-09T04:53:00.482Z,92.7
2023-05-09T04:55:48.144Z,92.7
2023-05-09T04:58:36.202Z,92.7
2023-05-09T05:01:23.950Z,92.7
2023-05-09T05:04:11.897Z,92.6
2023-05-09T05:07:00.082Z,92.7
2023-05-09T05:09:48.001Z,92.7
2023-05-09T11:07:26.564Z,52.2
2023-05-09T11:10:14.279Z,51
2023-05-09T11:13:02.111Z,51.2
2023-05-09T11:15:49.846Z,51.9
2023-05-09T11:18:37.834Z,51.9
2023-05-09T11:21:25.462Z,52.1
2023-05-09T11:24:13.731Z,52.8
2023-05-09T11:27:01.644Z,50
2023-05-09T11:29:49.375Z,49.6
2023-05-09T11:32:37.306Z,48.8
2023-05-09T11:35:25.041Z,49.1
2023-05-09T11:38:12.779Z,49
2023-05-09T11:41:01.090Z,50
2023-05-09T11:43:48.718Z,50.2
2023-05-09T11:46:36.484Z,50.8
2023-05-09T11:49:24.196Z,50.4
2023-05-09T11:52:12.053Z,49.5
2023-05-09T11:54:59.694Z,49.5
2023-05-09T11:57:47.862Z,50
2023-05-09T12:00:35.657Z,51.4
2023-05-09T12:03:23.748Z,52.1
2023-05-09T12:06:11.488Z,53.9
2023-05-09T12:08:59.447Z,54.9
2023-05-09T12:11:50.048Z,55.9
2023-05-09T12:14:38.607Z,57.5
2023-05-09T12:17:26.372Z,58.9
2023-05-09T12:20:14.332Z,60
2023-05-09T12:23:02.118Z,61.7
2023-05-09T12:25:49.819Z,64.1
2023-05-09T12:28:37.477Z,67.8
2023-05-09T12:31:25.668Z,69.8
2023-05-09T12:34:13.447Z,73.1
2023-05-09T12:37:01.500Z,73.9
2023-05-09T12:39:49.073Z,75.7
2023-05-09T12:42:36.663Z,77.1
2023-05-09T12:45:24.285Z,77.2
2023-05-09T12:48:12.576Z,78.2
2023-05-09T12:51:00.312Z,78.8
2023-05-09T12:53:48.095Z,79.3
2023-05-09T12:56:35.697Z,82.3
2023-05-09T12:59:23.570Z,84.6
2023-05-09T13:02:11.262Z,85.3
2023-05-09T13:04:59.557Z,88.3
2023-05-09T13:07:47.181Z,89.8
2023-05-09T13:10:34.930Z,90.3
2023-05-09T13:13:22.950Z,90.7
2023-05-09T13:16:14.978Z,91.6
2023-05-09T13:19:03.486Z,92.6
2023-05-09T13:21:51.768Z,93.7
2023-05-09T13:24:39.469Z,94.1
2023-05-09T13:27:27.342Z,94.8
2023-05-09T13:30:15.994Z,95.1
2023-05-09T13:33:25.627Z,95.9
2023-05-09T13:36:16.282Z,96.5
2023-05-09T13:39:04.794Z,96.6
2023-05-09T13:41:52.549Z,96.4
2023-05-09T13:44:40.275Z,96.8
2023-05-09T13:47:28.006Z,96.7
2023-05-09T13:50:16.310Z,96.6
2023-05-09T13:53:04.364Z,96.6
2023-05-09T13:55:52.396Z,96.6
2023-05-09T13:58:40.060Z,95.5
2023-05-09T14:01:27.936Z,95.2
2023-05-09T14:04:15.890Z,95.8
2023-05-09T14:07:03.700Z,95.7
2023-05-09T14:10:08.334Z,95.8
2023-05-09T14:12:59.224Z,96.1
2023-05-09T14:15:47.083Z,96.2
2023-05-09T14:18:34.846Z,96.1
2023-05-09T14:21:22.421Z,96.3
2023-05-09T14:24:10.102Z,96.9
2023-05-09T14:26:57.825Z,97.3
2023-05-09T14:29:46.003Z,96.7
2023-05-09T14:32:33.688Z,96.9
2023-05-09T14:35:21.535Z,97
2023-05-09T14:38:09.236Z,97.3
2023-05-09T14:40:57.039Z,97.3
2023-05-09T14:43:44.742Z,97.4
2023-05-09T14:46:33.189Z,97.6
2023-05-09T14:49:20.869Z,97.7
2023-05-09T14:52:08.755Z,97.9
2023-05-09T14:54:56.541Z,98.4
2023-05-09T14:57:44.270Z,98.4
2023-05-09T15:00:49.042Z,98.9
2023-05-09T15:03:37.444Z,98.9
2023-05-09T15:06:25.115Z,99.1
2023-05-09T15:09:12.775Z,99.4
2023-05-09T15:12:12.112Z,99.6
2023-05-09T15:14:59.896Z,99.4
2023-05-09T15:17:47.682Z,99.3
2023-05-09T15:20:36.136Z,99.5
2023-05-09T15:23:23.986Z,99.5
2023-05-09T15:26:11.751Z,99.7
2023-05-09T15:28:59.466Z,99.9
2023-05-09T15:31:47.185Z,99.9
2023-05-09T15:34:34.845Z,99.9
2023-05-09T15:37:22.929Z,99.9
2023-05-09T15:40:10.625Z,99.9
2023-05-09T15:42:58.246Z,99.9
2023-05-09T15:45:46.159Z,99.9
2023-05-09T15:48:33.785Z,99.9
2023-05-09T15:51:21.747Z,99.9
2023-05-09T15:54:09.970Z,99.9
2023-05-09T15:56:57.725Z,99.9
2023-05-09T15:59:45.413Z,99.9
2023-05-09T16:02:33.333Z,99.9
2023-05-09T16:05:20.984Z,99.9
2023-05-09T16:08:08.592Z,99.9
2023-05-09T16:10:56.942Z,99.9
2023-05-09T16:13:44.889Z,99.9
2023-05-09T16:16:32.765Z,99.9
2023-05-09T16:19:20.611Z,99.9
2023-05-09T16:22:08.239Z,99.9
2023-05-09T16:24:56.025Z,99.9
2023-05-09T16:27:44.134Z,99.9
2023-05-09T16:30:31.853Z,99.9
2023-05-09T16:33:19.527Z,99.9
2023-05-09T16:36:07.373Z,99.9
2023-05-09T16:38:55.150Z,99.9
2023-05-09T16:41:43.079Z,99.9
2023-05-09T16:44:31.162Z,99.9
2023-05-09T16:47:19.060Z,99.9
2023-05-09T16:50:06.723Z,99.9
2023-05-09T16:52:54.417Z,99.9
2023-05-09T16:55:42.147Z,99.9
2023-05-09T16:58:29.836Z,99.9
2023-05-09T17:01:18.010Z,99.9
2023-05-09T17:04:06.030Z,99.9
2023-05-09T17:06:53.747Z,99.9
2023-05-09T17:09:41.540Z,99.9
2023-05-09T17:12:29.259Z,99.9
2023-05-09T17:15:17.095Z,99.9
2023-05-09T17:18:05.455Z,99.9
2023-05-09T17:20:53.331Z,99.9
2023-05-09T17:23:41.060Z,99.9
2023-05-09T17:26:28.844Z,99.9
2023-05-09T17:29:16.526Z,99.9
2023-05-09T17:32:04.811Z,99.9
2023-05-09T17:34:52.937Z,99.9
2023-05-09T17:37:40.699Z,99.9
2023-05-09T17:40:28.269Z,99.9
2023-05-09T17:43:15.960Z,99.9
2023-05-09T17:46:03.872Z,99.9
2023-05-09T17:48:51.639Z,99.9
2023-05-09T17:51:39.785Z,99.9
2023-05-09T17:54:27.550Z,99.9
2023-05-09T17:57:15.288Z,99.9
2023-05-09T18:00:03.013Z,99.9
2023-05-09T18:02:50.781Z,99.9
2023-05-09T18:05:38.656Z,99.9
2023-05-09T18:08:26.738Z,99.9
2023-05-09T18:11:14.575Z,99.9
2023-05-09T18:14:02.340Z,99.9
2023-05-09T18:16:50.234Z,99.9
2023-05-09T18:19:37.867Z,99.9
2023-05-09T18:22:25.747Z,99.9
2023-05-09T18:25:14.001Z,99.9
2023-05-09T18:28:01.866Z,99.9
2023-05-09T18:30:49.599Z,99.9
2023-05-09T18:33:37.466Z,99.9
2023-05-09T18:36:25.193Z,99.9
2023-05-09T18:39:13.182Z,99.9
2023-05-09T18:42:01.259Z,99.9
2023-05-09T18:44:49.118Z,99.9
2023-05-09T18:47:37.255Z,99.9
2023-05-09T18:50:25.223Z,99.9
2023-05-09T18:53:13.070Z,99.9
2023-05-09T18:56:00.886Z,99.9
2023-05-09T18:58:49.023Z,99.9
2023-05-09T19:01:36.859Z,99.9
2023-05-09T19:04:24.817Z,99.9
2023-05-09T19:07:12.789Z,99.9
2023-05-09T19:10:00.667Z,99.9
2023-05-09T19:12:48.783Z,99.9
2023-05-09T19:15:37.071Z,99.9
2023-05-09T19:18:25.196Z,99.9
2023-05-09T19:21:12.832Z,99.9
2023-05-09T19:24:00.756Z,99.9
2023-05-09T19:26:48.476Z,99.9
2023-05-09T19:29:36.581Z,99.9
2023-05-09T19:32:24.461Z,99.9
2023-05-09T19:35:12.249Z,99.9
2023-05-09T19:37:59.981Z,99.9
2023-05-09T19:40:47.714Z,99.9
2023-05-09T19:43:35.405Z,99.9
2023-05-09T19:46:23.470Z,99.9
2023-05-09T19:49:11.561Z,99.9
2023-05-09T19:51:59.371Z,99.9
2023-05-09T19:54:47.102Z,99.9
2023-05-09T19:57:35.078Z,99.9
2023-05-09T20:00:22.772Z,99.9
2023-05-09T20:03:10.931Z,99.9
2023-05-09T20:05:58.872Z,99.9
2023-05-09T20:08:46.598Z,99.9
2023-05-09T20:11:34.259Z,99.9
2023-05-09T20:14:22.140Z,99.9
2023-05-09T20:17:09.973Z,99.9
2023-05-09T20:19:57.704Z,99.9
2023-05-09T20:22:45.621Z,99.9
2023-05-09T20:25:33.455Z,99.9
2023-05-09T20:28:21.055Z,99.9
